sensor_id;sensor_type;location;lat;lon;timestamp;temperature;humidity
21246;DHT22;10781;50.928;4.440;2023-01-10T00:00:37;6.80;99.90
21246;DHT22;10781;50.928;4.440;2023-01-10T00:03:05;6.80;99.90
21246;DHT22;10781;50.928;4.440;2023-01-10T00:05:32;6.80;99.90
21246;DHT22;10781;50.928;4.440;2023-01-10T00:07:58;6.80;99.90
21246;DHT22;10781;50.928;4.440;2023-01-10T00:10:24;6.80;99.90
21246;DHT22;10781;50.928;4.440;2023-01-10T00:12:50;6.70;99.90
21246;DHT22;10781;50.928;4.440;2023-01-10T00:15:35;6.60;99.90
21246;DHT22;10781;50.928;4.440;2023-01-10T00:18:01;6.50;99.90
21246;DHT22;10781;50.928;4.440;2023-01-10T00:20:27;6.40;99.90
21246;DHT22;10781;50.928;4.440;2023-01-10T00:22:53;6.40;99.90
21246;DHT22;10781;50.928;4.440;2023-01-10T00:25:19;6.40;99.90
21246;DHT22;10781;50.928;4.440;2023-01-10T00:27:46;6.50;99.90
21246;DHT22;10781;50.928;4.440;2023-01-10T00:30:22;6.50;99.90
21246;DHT22;10781;50.928;4.440;2023-01-10T00:32:47;6.60;99.90
21246;DHT22;10781;50.928;4.440;2023-01-10T00:35:13;6.60;99.90
21246;DHT22;10781;50.928;4.440;2023-01-10T00:37:39;6.70;99.90
21246;DHT22;10781;50.928;4.440;2023-01-10T00:40:07;6.70;99.90
21246;DHT22;10781;50.928;4.440;2023-01-10T00:42:34;6.80;99.90
21246;DHT22;10781;50.928;4.440;2023-01-10T00:45:18;6.80;99.90
21246;DHT22;10781;50.928;4.440;2023-01-10T00:47:45;6.80;99.90
21246;DHT22;10781;50.928;4.440;2023-01-10T00:50:10;6.90;99.90
21246;DHT22;10781;50.928;4.440;2023-01-10T00:52:36;7.00;99.90
21246;DHT22;10781;50.928;4.440;2023-01-10T00:55:02;7.00;99.90
21246;DHT22;10781;50.928;4.440;2023-01-10T00:57:28;7.00;99.90
21246;DHT22;10781;50.928;4.440;2023-01-10T00:59:54;7.10;99.90
21246;DHT22;10781;50.928;4.440;2023-01-10T01:02:19;7.10;99.90
21246;DHT22;10781;50.928;4.440;2023-01-10T01:04:45;7.00;99.90
21246;DHT22;10781;50.928;4.440;2023-01-10T01:07:10;7.10;99.90
21246;DHT22;10781;50.928;4.440;2023-01-10T01:09:36;7.10;99.90
21246;DHT22;10781;50.928;4.440;2023-01-10T01:12:22;7.10;99.90
21246;DHT22;10781;50.928;4.440;2023-01-10T01:14:47;7.10;99.90
21246;DHT22;10781;50.928;4.440;2023-01-10T01:17:13;7.20;99.90
21246;DHT22;10781;50.928;4.440;2023-01-10T01:19:38;7.30;99.90
21246;DHT22;10781;50.928;4.440;2023-01-10T01:22:04;7.30;99.90
21246;DHT22;10781;50.928;4.440;2023-01-10T01:24:30;7.40;99.90
21246;DHT22;10781;50.928;4.440;2023-01-10T01:26:55;7.30;99.90
21246;DHT22;10781;50.928;4.440;2023-01-10T01:29:21;7.30;99.90
21246;DHT22;10781;50.928;4.440;2023-01-10T01:31:46;7.30;99.90
21246;DHT22;10781;50.928;4.440;2023-01-10T01:34:12;7.40;99.90
21246;DHT22;10781;50.928;4.440;2023-01-10T01:36:39;7.50;99.90
21246;DHT22;10781;50.928;4.440;2023-01-10T01:39:04;7.30;99.90
21246;DHT22;10781;50.928;4.440;2023-01-10T01:41:30;7.30;99.90
21246;DHT22;10781;50.928;4.440;2023-01-10T01:44:17;7.20;99.90
21246;DHT22;10781;50.928;4.440;2023-01-10T01:46:59;7.00;99.90
21246;DHT22;10781;50.928;4.440;2023-01-10T01:49:25;7.00;99.90
21246;DHT22;10781;50.928;4.440;2023-01-10T01:52:01;6.90;99.90
21246;DHT22;10781;50.928;4.440;2023-01-10T01:54:28;6.90;99.90
21246;DHT22;10781;50.928;4.440;2023-01-10T01:57:07;6.90;99.90
21246;DHT22;10781;50.928;4.440;2023-01-10T01:59:37;6.90;99.90
21246;DHT22;10781;50.928;4.440;2023-01-10T02:02:07;6.90;99.90
21246;DHT22;10781;50.928;4.440;2023-01-10T02:04:41;6.80;99.90
21246;DHT22;10781;50.928;4.440;2023-01-10T02:07:09;6.80;99.90
21246;DHT22;10781;50.928;4.440;2023-01-10T02:09:45;6.70;99.90
21246;DHT22;10781;50.928;4.440;2023-01-10T02:12:14;6.80;99.90
21246;DHT22;10781;50.928;4.440;2023-01-10T02:14:41;6.90;99.90
21246;DHT22;10781;50.928;4.440;2023-01-10T02:17:11;7.00;99.90
21246;DHT22;10781;50.928;4.440;2023-01-10T02:19:51;7.00;99.90
21246;DHT22;10781;50.928;4.440;2023-01-10T02:34:08;7.20;99.90
21246;DHT22;10781;50.928;4.440;2023-01-10T02:39:10;7.00;99.90
21246;DHT22;10781;50.928;4.440;2023-01-10T02:41:49;6.90;99.90
21246;DHT22;10781;50.928;4.440;2023-01-10T02:46:45;6.80;99.90
21246;DHT22;10781;50.928;4.440;2023-01-10T02:49:12;6.80;99.90
21246;DHT22;10781;50.928;4.440;2023-01-10T02:51:38;6.80;99.90
21246;DHT22;10781;50.928;4.440;2023-01-10T02:54:24;6.70;99.90
21246;DHT22;10781;50.928;4.440;2023-01-10T02:57:33;6.80;99.90
21246;DHT22;10781;50.928;4.440;2023-01-10T03:00:08;6.90;99.90
21246;DHT22;10781;50.928;4.440;2023-01-10T03:08:17;6.90;99.90
21246;DHT22;10781;50.928;4.440;2023-01-10T03:10:57;6.80;99.90
21246;DHT22;10781;50.928;4.440;2023-01-10T03:13:38;6.80;99.90
21246;DHT22;10781;50.928;4.440;2023-01-10T03:16:10;6.80;99.90
21246;DHT22;10781;50.928;4.440;2023-01-10T03:18:46;6.80;99.90
21246;DHT22;10781;50.928;4.440;2023-01-10T03:21:16;6.50;99.90
21246;DHT22;10781;50.928;4.440;2023-01-10T03:23:44;6.40;99.90
21246;DHT22;10781;50.928;4.440;2023-01-10T03:26:12;6.50;99.90
21246;DHT22;10781;50.928;4.440;2023-01-10T03:28:50;6.50;99.90
21246;DHT22;10781;50.928;4.440;2023-01-10T03:31:21;6.40;99.90
21246;DHT22;10781;50.928;4.440;2023-01-10T03:33:48;6.40;99.90
21246;DHT22;10781;50.928;4.440;2023-01-10T03:36:22;6.20;99.90
21246;DHT22;10781;50.928;4.440;2023-01-10T03:49:40;6.20;99.90
21246;DHT22;10781;50.928;4.440;2023-01-10T03:52:09;6.20;99.90
21246;DHT22;10781;50.928;4.440;2023-01-10T03:54:36;6.20;99.90
21246;DHT22;10781;50.928;4.440;2023-01-10T03:57:02;6.30;99.90
21246;DHT22;10781;50.928;4.440;2023-01-10T03:59:30;6.30;99.90
21246;DHT22;10781;50.928;4.440;2023-01-10T04:01:55;6.30;99.90
21246;DHT22;10781;50.928;4.440;2023-01-10T04:04:21;6.30;99.90
21246;DHT22;10781;50.928;4.440;2023-01-10T04:06:47;6.40;99.90
21246;DHT22;10781;50.928;4.440;2023-01-10T04:09:13;6.40;99.90
21246;DHT22;10781;50.928;4.440;2023-01-10T04:11:38;6.40;99.90
21246;DHT22;10781;50.928;4.440;2023-01-10T04:14:04;6.40;99.90
21246;DHT22;10781;50.928;4.440;2023-01-10T04:16:30;6.40;99.90
21246;DHT22;10781;50.928;4.440;2023-01-10T04:18:56;6.40;99.90
21246;DHT22;10781;50.928;4.440;2023-01-10T04:21:21;6.20;99.90
21246;DHT22;10781;50.928;4.440;2023-01-10T04:23:47;6.20;99.90
21246;DHT22;10781;50.928;4.440;2023-01-10T04:26:13;6.20;99.90
21246;DHT22;10781;50.928;4.440;2023-01-10T04:28:38;6.40;99.90
21246;DHT22;10781;50.928;4.440;2023-01-10T04:31:04;6.20;99.90
21246;DHT22;10781;50.928;4.440;2023-01-10T04:33:30;6.10;99.90
21246;DHT22;10781;50.928;4.440;2023-01-10T04:35:56;6.20;99.90
21246;DHT22;10781;50.928;4.440;2023-01-10T04:38:22;6.10;99.90
21246;DHT22;10781;50.928;4.440;2023-01-10T04:40:52;6.10;99.90
21246;DHT22;10781;50.928;4.440;2023-01-10T04:43:18;6.20;99.90
21246;DHT22;10781;50.928;4.440;2023-01-10T04:45:44;6.20;99.90
21246;DHT22;10781;50.928;4.440;2023-01-10T04:48:09;6.20;99.90
21246;DHT22;10781;50.928;4.440;2023-01-10T04:50:35;6.20;99.90
21246;DHT22;10781;50.928;4.440;2023-01-10T04:53:00;6.10;99.90
21246;DHT22;10781;50.928;4.440;2023-01-10T04:55:26;6.20;99.90
21246;DHT22;10781;50.928;4.440;2023-01-10T04:57:52;6.20;99.90
21246;DHT22;10781;50.928;4.440;2023-01-10T05:00:17;6.30;99.90
21246;DHT22;10781;50.928;4.440;2023-01-10T05:02:43;6.30;99.90
21246;DHT22;10781;50.928;4.440;2023-01-10T05:05:10;6.30;99.90
21246;DHT22;10781;50.928;4.440;2023-01-10T05:07:36;6.10;99.90
21246;DHT22;10781;50.928;4.440;2023-01-10T05:10:04;6.10;99.90
21246;DHT22;10781;50.928;4.440;2023-01-10T05:12:30;6.20;99.90
21246;DHT22;10781;50.928;4.440;2023-01-10T05:14:56;6.20;99.90
21246;DHT22;10781;50.928;4.440;2023-01-10T05:17:21;6.10;99.90
21246;DHT22;10781;50.928;4.440;2023-01-10T05:19:47;6.20;99.90
21246;DHT22;10781;50.928;4.440;2023-01-10T05:22:13;6.10;99.90
21246;DHT22;10781;50.928;4.440;2023-01-10T05:24:39;6.00;99.90
21246;DHT22;10781;50.928;4.440;2023-01-10T05:27:05;6.00;99.90
21246;DHT22;10781;50.928;4.440;2023-01-10T05:29:31;6.00;99.90
21246;DHT22;10781;50.928;4.440;2023-01-10T05:31:57;5.90;99.90
21246;DHT22;10781;50.928;4.440;2023-01-10T05:34:23;5.90;99.90
21246;DHT22;10781;50.928;4.440;2023-01-10T05:36:49;6.00;99.90
21246;DHT22;10781;50.928;4.440;2023-01-10T05:39:14;6.00;99.90
21246;DHT22;10781;50.928;4.440;2023-01-10T05:41:40;6.10;99.90
21246;DHT22;10781;50.928;4.440;2023-01-10T05:44:06;6.00;99.90
21246;DHT22;10781;50.928;4.440;2023-01-10T05:46:32;6.10;99.90
21246;DHT22;10781;50.928;4.440;2023-01-10T05:48:58;6.10;99.90
21246;DHT22;10781;50.928;4.440;2023-01-10T05:51:24;6.20;99.90
21246;DHT22;10781;50.928;4.440;2023-01-10T05:53:49;6.20;99.90
21246;DHT22;10781;50.928;4.440;2023-01-10T05:56:15;6.20;99.90
21246;DHT22;10781;50.928;4.440;2023-01-10T05:58:41;6.10;99.90
21246;DHT22;10781;50.928;4.440;2023-01-10T06:01:06;6.20;99.90
21246;DHT22;10781;50.928;4.440;2023-01-10T06:03:32;6.20;99.90
21246;DHT22;10781;50.928;4.440;2023-01-10T06:06:01;6.20;99.90
21246;DHT22;10781;50.928;4.440;2023-01-10T06:08:29;6.20;99.90
21246;DHT22;10781;50.928;4.440;2023-01-10T06:10:55;6.20;99.90
21246;DHT22;10781;50.928;4.440;2023-01-10T06:13:22;6.10;99.90
21246;DHT22;10781;50.928;4.440;2023-01-10T06:15:48;6.10;99.90
21246;DHT22;10781;50.928;4.440;2023-01-10T06:18:14;6.00;99.90
21246;DHT22;10781;50.928;4.440;2023-01-10T06:20:41;6.10;99.90
21246;DHT22;10781;50.928;4.440;2023-01-10T06:23:08;6.00;99.90
21246;DHT22;10781;50.928;4.440;2023-01-10T06:25:35;6.10;99.90
21246;DHT22;10781;50.928;4.440;2023-01-10T06:28:02;6.20;99.90
21246;DHT22;10781;50.928;4.440;2023-01-10T06:30:28;6.20;99.90
21246;DHT22;10781;50.928;4.440;2023-01-10T06:33:05;6.20;99.90
21246;DHT22;10781;50.928;4.440;2023-01-10T06:35:32;6.10;99.90
21246;DHT22;10781;50.928;4.440;2023-01-10T06:37:58;6.00;99.90
21246;DHT22;10781;50.928;4.440;2023-01-10T06:40:24;6.00;99.90
21246;DHT22;10781;50.928;4.440;2023-01-10T06:42:50;6.10;99.90
21246;DHT22;10781;50.928;4.440;2023-01-10T06:45:16;6.00;99.90
21246;DHT22;10781;50.928;4.440;2023-01-10T06:47:42;6.00;99.90
21246;DHT22;10781;50.928;4.440;2023-01-10T06:50:08;6.10;99.90
21246;DHT22;10781;50.928;4.440;2023-01-10T06:52:34;6.20;99.90
21246;DHT22;10781;50.928;4.440;2023-01-10T06:55:00;6.10;99.90
21246;DHT22;10781;50.928;4.440;2023-01-10T06:57:26;6.10;99.90
21246;DHT22;10781;50.928;4.440;2023-01-10T06:59:53;6.10;99.90
21246;DHT22;10781;50.928;4.440;2023-01-10T07:02:18;6.10;99.90
21246;DHT22;10781;50.928;4.440;2023-01-10T07:04:44;6.00;99.90
21246;DHT22;10781;50.928;4.440;2023-01-10T07:07:10;5.80;99.90
21246;DHT22;10781;50.928;4.440;2023-01-10T07:09:35;5.90;99.90
21246;DHT22;10781;50.928;4.440;2023-01-10T07:12:01;5.90;99.90
21246;DHT22;10781;50.928;4.440;2023-01-10T07:14:27;5.90;99.90
21246;DHT22;10781;50.928;4.440;2023-01-10T07:16:53;5.90;99.90
21246;DHT22;10781;50.928;4.440;2023-01-10T07:19:18;5.90;99.90
21246;DHT22;10781;50.928;4.440;2023-01-10T07:21:44;6.00;99.90
21246;DHT22;10781;50.928;4.440;2023-01-10T07:24:10;6.00;99.90
21246;DHT22;10781;50.928;4.440;2023-01-10T07:26:36;6.10;99.90
21246;DHT22;10781;50.928;4.440;2023-01-10T07:29:02;6.10;99.90
21246;DHT22;10781;50.928;4.440;2023-01-10T07:31:28;6.00;99.90
21246;DHT22;10781;50.928;4.440;2023-01-10T07:33:54;6.10;99.90
21246;DHT22;10781;50.928;4.440;2023-01-10T07:36:19;6.10;99.90
21246;DHT22;10781;50.928;4.440;2023-01-10T07:38:45;6.10;99.90
21246;DHT22;10781;50.928;4.440;2023-01-10T07:41:11;6.00;99.90
21246;DHT22;10781;50.928;4.440;2023-01-10T07:43:37;6.00;99.90
21246;DHT22;10781;50.928;4.440;2023-01-10T07:46:05;5.90;99.90
21246;DHT22;10781;50.928;4.440;2023-01-10T07:48:35;6.00;99.90
21246;DHT22;10781;50.928;4.440;2023-01-10T07:51:01;6.00;99.90
21246;DHT22;10781;50.928;4.440;2023-01-10T07:53:28;5.90;99.90
21246;DHT22;10781;50.928;4.440;2023-01-10T07:55:58;6.00;99.90
21246;DHT22;10781;50.928;4.440;2023-01-10T07:58:24;6.00;99.90
21246;DHT22;10781;50.928;4.440;2023-01-10T08:00:49;6.10;99.90
21246;DHT22;10781;50.928;4.440;2023-01-10T08:03:16;6.20;99.90
21246;DHT22;10781;50.928;4.440;2023-01-10T08:05:42;6.30;99.90
21246;DHT22;10781;50.928;4.440;2023-01-10T08:08:10;6.20;99.90
21246;DHT22;10781;50.928;4.440;2023-01-10T08:10:37;6.30;99.90
21246;DHT22;10781;50.928;4.440;2023-01-10T08:13:03;6.40;99.90
21246;DHT22;10781;50.928;4.440;2023-01-10T08:15:29;6.50;99.90
21246;DHT22;10781;50.928;4.440;2023-01-10T08:17:57;6.60;99.90
21246;DHT22;10781;50.928;4.440;2023-01-10T08:20:23;6.70;99.90
21246;DHT22;10781;50.928;4.440;2023-01-10T08:22:49;6.70;99.90
21246;DHT22;10781;50.928;4.440;2023-01-10T08:25:15;6.60;99.90
21246;DHT22;10781;50.928;4.440;2023-01-10T08:27:40;6.60;99.90
21246;DHT22;10781;50.928;4.440;2023-01-10T08:30:07;6.70;99.90
21246;DHT22;10781;50.928;4.440;2023-01-10T08:32:33;6.80;99.90
21246;DHT22;10781;50.928;4.440;2023-01-10T08:34:58;6.90;99.90
21246;DHT22;10781;50.928;4.440;2023-01-10T08:37:24;7.00;99.90
21246;DHT22;10781;50.928;4.440;2023-01-10T08:39:50;6.90;99.90
21246;DHT22;10781;50.928;4.440;2023-01-10T08:42:15;6.90;99.90
21246;DHT22;10781;50.928;4.440;2023-01-10T08:44:42;6.90;99.90
21246;DHT22;10781;50.928;4.440;2023-01-10T08:47:07;6.80;99.90
21246;DHT22;10781;50.928;4.440;2023-01-10T08:49:33;7.00;99.90
21246;DHT22;10781;50.928;4.440;2023-01-10T08:52:00;7.10;99.90
21246;DHT22;10781;50.928;4.440;2023-01-10T08:54:26;7.10;99.90
21246;DHT22;10781;50.928;4.440;2023-01-10T08:56:52;7.30;99.90
21246;DHT22;10781;50.928;4.440;2023-01-10T08:59:18;7.50;99.90
21246;DHT22;10781;50.928;4.440;2023-01-10T09:01:43;7.40;99.90
21246;DHT22;10781;50.928;4.440;2023-01-10T09:04:09;7.30;99.90
21246;DHT22;10781;50.928;4.440;2023-01-10T09:06:36;7.30;99.90
21246;DHT22;10781;50.928;4.440;2023-01-10T09:09:01;7.40;99.90
21246;DHT22;10781;50.928;4.440;2023-01-10T09:11:27;7.50;99.90
21246;DHT22;10781;50.928;4.440;2023-01-10T09:13:53;7.50;99.90
21246;DHT22;10781;50.928;4.440;2023-01-10T09:16:18;7.60;99.90
21246;DHT22;10781;50.928;4.440;2023-01-10T09:18:44;7.60;99.90
21246;DHT22;10781;50.928;4.440;2023-01-10T09:21:10;7.70;99.90
21246;DHT22;10781;50.928;4.440;2023-01-10T09:23:35;7.80;99.90
21246;DHT22;10781;50.928;4.440;2023-01-10T09:26:01;7.90;99.90
21246;DHT22;10781;50.928;4.440;2023-01-10T09:28:27;7.80;99.90
21246;DHT22;10781;50.928;4.440;2023-01-10T09:30:53;8.00;99.90
21246;DHT22;10781;50.928;4.440;2023-01-10T09:33:19;8.30;99.90
21246;DHT22;10781;50.928;4.440;2023-01-10T09:35:45;8.20;99.90
21246;DHT22;10781;50.928;4.440;2023-01-10T09:38:13;8.20;99.90
21246;DHT22;10781;50.928;4.440;2023-01-10T09:49:41;8.10;99.90
21246;DHT22;10781;50.928;4.440;2023-01-10T09:52:03;8.10;99.90
21246;DHT22;10781;50.928;4.440;2023-01-10T09:54:39;7.90;99.90
21246;DHT22;10781;50.928;4.440;2023-01-10T09:57:16;7.90;99.90
21246;DHT22;10781;50.928;4.440;2023-01-10T09:59:43;7.90;99.90
21246;DHT22;10781;50.928;4.440;2023-01-10T10:02:25;8.10;99.90
21246;DHT22;10781;50.928;4.440;2023-01-10T10:07:27;8.10;99.90
21246;DHT22;10781;50.928;4.440;2023-01-10T10:09:53;8.40;99.90
21246;DHT22;10781;50.928;4.440;2023-01-10T10:12:31;8.40;99.90
21246;DHT22;10781;50.928;4.440;2023-01-10T10:15:19;8.40;99.90
21246;DHT22;10781;50.928;4.440;2023-01-10T10:18:17;8.60;99.90
21246;DHT22;10781;50.928;4.440;2023-01-10T10:21:03;8.80;99.90
21246;DHT22;10781;50.928;4.440;2023-01-10T10:24:04;8.90;99.90
21246;DHT22;10781;50.928;4.440;2023-01-10T10:26:35;9.10;99.90
21246;DHT22;10781;50.928;4.440;2023-01-10T10:29:06;9.10;99.90
21246;DHT22;10781;50.928;4.440;2023-01-10T10:39:46;9.30;99.90
21246;DHT22;10781;50.928;4.440;2023-01-10T10:42:16;9.30;99.90
21246;DHT22;10781;50.928;4.440;2023-01-10T10:45:03;9.30;99.90
21246;DHT22;10781;50.928;4.440;2023-01-10T10:47:35;9.20;99.90
21246;DHT22;10781;50.928;4.440;2023-01-10T10:50:24;9.20;99.90
21246;DHT22;10781;50.928;4.440;2023-01-10T10:52:53;9.30;99.90
21246;DHT22;10781;50.928;4.440;2023-01-10T10:55:27;9.30;99.90
21246;DHT22;10781;50.928;4.440;2023-01-10T10:57:54;9.30;99.90
21246;DHT22;10781;50.928;4.440;2023-01-10T11:00:21;9.10;99.90
21246;DHT22;10781;50.928;4.440;2023-01-10T11:03:25;9.10;99.90
21246;DHT22;10781;50.928;4.440;2023-01-10T11:05:52;9.20;99.90
21246;DHT22;10781;50.928;4.440;2023-01-10T11:08:19;9.20;99.90
21246;DHT22;10781;50.928;4.440;2023-01-10T11:10:53;9.00;99.90
21246;DHT22;10781;50.928;4.440;2023-01-10T11:13:45;9.00;99.90
21246;DHT22;10781;50.928;4.440;2023-01-10T11:16:24;9.10;99.90
21246;DHT22;10781;50.928;4.440;2023-01-10T11:21:55;9.00;99.90
21246;DHT22;10781;50.928;4.440;2023-01-10T11:24:49;8.90;99.90
21246;DHT22;10781;50.928;4.440;2023-01-10T11:27:15;8.90;99.90
21246;DHT22;10781;50.928;4.440;2023-01-10T11:29:48;8.90;99.90
21246;DHT22;10781;50.928;4.440;2023-01-10T11:32:17;8.80;99.90
21246;DHT22;10781;50.928;4.440;2023-01-10T11:35:24;8.70;99.90
21246;DHT22;10781;50.928;4.440;2023-01-10T11:38:05;8.90;99.90
21246;DHT22;10781;50.928;4.440;2023-01-10T11:40:32;9.20;99.90
21246;DHT22;10781;50.928;4.440;2023-01-10T11:42:59;9.40;99.90
21246;DHT22;10781;50.928;4.440;2023-01-10T11:45:26;9.30;99.90
21246;DHT22;10781;50.928;4.440;2023-01-10T11:48:06;9.40;99.90
21246;DHT22;10781;50.928;4.440;2023-01-10T11:50:40;9.40;99.90
21246;DHT22;10781;50.928;4.440;2023-01-10T11:53:21;9.20;99.90
21246;DHT22;10781;50.928;4.440;2023-01-10T11:55:50;9.30;99.90
21246;DHT22;10781;50.928;4.440;2023-01-10T11:58:16;9.30;99.90
21246;DHT22;10781;50.928;4.440;2023-01-10T12:00:43;9.50;99.90
21246;DHT22;10781;50.928;4.440;2023-01-10T12:03:25;9.50;99.90
21246;DHT22;10781;50.928;4.440;2023-01-10T12:05:58;9.60;99.90
21246;DHT22;10781;50.928;4.440;2023-01-10T12:08:29;9.60;99.90
21246;DHT22;10781;50.928;4.440;2023-01-10T12:13:48;9.50;99.90
21246;DHT22;10781;50.928;4.440;2023-01-10T12:16:26;9.60;99.90
21246;DHT22;10781;50.928;4.440;2023-01-10T12:18:55;9.60;99.90
21246;DHT22;10781;50.928;4.440;2023-01-10T12:21:36;9.50;99.90
21246;DHT22;10781;50.928;4.440;2023-01-10T12:27:15;9.50;99.90
21246;DHT22;10781;50.928;4.440;2023-01-10T12:30:19;9.60;99.90
21246;DHT22;10781;50.928;4.440;2023-01-10T12:32:51;9.70;99.90
21246;DHT22;10781;50.928;4.440;2023-01-10T12:35:40;9.60;99.90
21246;DHT22;10781;50.928;4.440;2023-01-10T12:38:26;9.60;99.90
21246;DHT22;10781;50.928;4.440;2023-01-10T12:41:21;9.40;99.90
21246;DHT22;10781;50.928;4.440;2023-01-10T12:44:27;9.30;99.90
21246;DHT22;10781;50.928;4.440;2023-01-10T12:47:04;9.20;99.90
21246;DHT22;10781;50.928;4.440;2023-01-10T12:49:53;9.00;99.90
21246;DHT22;10781;50.928;4.440;2023-01-10T12:55:20;8.90;99.90
21246;DHT22;10781;50.928;4.440;2023-01-10T12:57:49;8.90;99.90
21246;DHT22;10781;50.928;4.440;2023-01-10T13:00:27;8.80;99.90
21246;DHT22;10781;50.928;4.440;2023-01-10T13:02:56;8.90;99.90
21246;DHT22;10781;50.928;4.440;2023-01-10T13:05:26;8.90;99.90
21246;DHT22;10781;50.928;4.440;2023-01-10T13:07:56;8.80;99.90
21246;DHT22;10781;50.928;4.440;2023-01-10T13:10:24;8.70;99.90
21246;DHT22;10781;50.928;4.440;2023-01-10T13:13:05;8.80;99.90
21246;DHT22;10781;50.928;4.440;2023-01-10T13:15:53;8.70;99.90
21246;DHT22;10781;50.928;4.440;2023-01-10T13:18:27;8.60;99.90
21246;DHT22;10781;50.928;4.440;2023-01-10T13:21:11;8.50;99.90
21246;DHT22;10781;50.928;4.440;2023-01-10T13:26:12;8.30;99.90
21246;DHT22;10781;50.928;4.440;2023-01-10T13:28:44;8.20;99.90
21246;DHT22;10781;50.928;4.440;2023-01-10T13:31:27;8.20;99.90
21246;DHT22;10781;50.928;4.440;2023-01-10T13:33:57;8.10;99.90
21246;DHT22;10781;50.928;4.440;2023-01-10T13:36:27;8.10;99.90
21246;DHT22;10781;50.928;4.440;2023-01-10T13:39:01;8.10;99.90
21246;DHT22;10781;50.928;4.440;2023-01-10T13:52:52;8.10;99.90
21246;DHT22;10781;50.928;4.440;2023-01-10T13:55:29;8.10;99.90
21246;DHT22;10781;50.928;4.440;2023-01-10T13:58:04;8.10;99.90
21246;DHT22;10781;50.928;4.440;2023-01-10T14:01:27;8.10;99.90
21246;DHT22;10781;50.928;4.440;2023-01-10T14:07:19;7.80;99.90
21246;DHT22;10781;50.928;4.440;2023-01-10T14:09:47;7.80;99.90
21246;DHT22;10781;50.928;4.440;2023-01-10T14:12:33;7.70;99.90
21246;DHT22;10781;50.928;4.440;2023-01-10T14:15:06;7.70;99.90
21246;DHT22;10781;50.928;4.440;2023-01-10T14:17:36;7.70;99.90
21246;DHT22;10781;50.928;4.440;2023-01-10T14:22:37;7.50;99.90
21246;DHT22;10781;50.928;4.440;2023-01-10T14:25:14;7.60;99.90
21246;DHT22;10781;50.928;4.440;2023-01-10T14:27:44;7.50;99.90
21246;DHT22;10781;50.928;4.440;2023-01-10T14:30:30;7.50;99.90
21246;DHT22;10781;50.928;4.440;2023-01-10T14:33:10;7.50;99.90
21246;DHT22;10781;50.928;4.440;2023-01-10T14:35:41;7.50;99.90
21246;DHT22;10781;50.928;4.440;2023-01-10T14:38:29;7.50;99.90
21246;DHT22;10781;50.928;4.440;2023-01-10T14:41:19;7.40;99.90
21246;DHT22;10781;50.928;4.440;2023-01-10T14:44:22;7.50;99.90
21246;DHT22;10781;50.928;4.440;2023-01-10T14:46:55;7.50;99.90
21246;DHT22;10781;50.928;4.440;2023-01-10T14:49:26;7.50;99.90
21246;DHT22;10781;50.928;4.440;2023-01-10T14:52:40;7.50;99.90
21246;DHT22;10781;50.928;4.440;2023-01-10T14:54:38;7.50;99.90
21246;DHT22;10781;50.928;4.440;2023-01-10T14:57:19;7.50;99.90
21246;DHT22;10781;50.928;4.440;2023-01-10T14:59:45;7.60;99.90
21246;DHT22;10781;50.928;4.440;2023-01-10T15:02:24;7.70;99.90
21246;DHT22;10781;50.928;4.440;2023-01-10T15:05:02;7.70;99.90
21246;DHT22;10781;50.928;4.440;2023-01-10T15:07:34;7.60;99.90
21246;DHT22;10781;50.928;4.440;2023-01-10T15:10:08;7.60;99.90
21246;DHT22;10781;50.928;4.440;2023-01-10T15:12:36;7.60;99.90
21246;DHT22;10781;50.928;4.440;2023-01-10T15:15:15;7.60;99.90
21246;DHT22;10781;50.928;4.440;2023-01-10T15:17:42;7.50;99.90
21246;DHT22;10781;50.928;4.440;2023-01-10T15:20:14;7.50;99.90
21246;DHT22;10781;50.928;4.440;2023-01-10T15:22:44;7.50;99.90
21246;DHT22;10781;50.928;4.440;2023-01-10T15:27:48;7.60;99.90
21246;DHT22;10781;50.928;4.440;2023-01-10T15:30:23;7.70;99.90
21246;DHT22;10781;50.928;4.440;2023-01-10T15:32:51;7.60;99.90
21246;DHT22;10781;50.928;4.440;2023-01-10T15:35:20;7.60;99.90
21246;DHT22;10781;50.928;4.440;2023-01-10T15:38:04;7.60;99.90
21246;DHT22;10781;50.928;4.440;2023-01-10T15:40:33;7.60;99.90
21246;DHT22;10781;50.928;4.440;2023-01-10T15:43:28;7.70;99.90
21246;DHT22;10781;50.928;4.440;2023-01-10T15:45:55;7.70;99.90
21246;DHT22;10781;50.928;4.440;2023-01-10T15:51:00;7.60;99.90
21246;DHT22;10781;50.928;4.440;2023-01-10T15:56:39;7.60;99.90
21246;DHT22;10781;50.928;4.440;2023-01-10T15:59:04;7.70;99.90
21246;DHT22;10781;50.928;4.440;2023-01-10T16:01:41;7.70;99.90
21246;DHT22;10781;50.928;4.440;2023-01-10T16:04:16;7.80;99.90
21246;DHT22;10781;50.928;4.440;2023-01-10T16:06:42;7.80;99.90
21246;DHT22;10781;50.928;4.440;2023-01-10T16:09:18;7.80;99.90
21246;DHT22;10781;50.928;4.440;2023-01-10T16:11:49;7.90;99.90
21246;DHT22;10781;50.928;4.440;2023-01-10T16:14:34;7.90;99.90
21246;DHT22;10781;50.928;4.440;2023-01-10T16:17:01;8.00;99.90
21246;DHT22;10781;50.928;4.440;2023-01-10T16:19:27;8.00;99.90
21246;DHT22;10781;50.928;4.440;2023-01-10T16:21:55;7.90;99.90
21246;DHT22;10781;50.928;4.440;2023-01-10T16:24:28;7.90;99.90
21246;DHT22;10781;50.928;4.440;2023-01-10T16:26:54;7.90;99.90
21246;DHT22;10781;50.928;4.440;2023-01-10T16:29:21;8.00;99.90
21246;DHT22;10781;50.928;4.440;2023-01-10T16:31:48;8.00;99.90
21246;DHT22;10781;50.928;4.440;2023-01-10T16:34:14;8.10;99.90
21246;DHT22;10781;50.928;4.440;2023-01-10T16:36:41;8.10;99.90
21246;DHT22;10781;50.928;4.440;2023-01-10T16:39:17;8.00;99.90
21246;DHT22;10781;50.928;4.440;2023-01-10T16:41:44;8.10;99.90
21246;DHT22;10781;50.928;4.440;2023-01-10T16:44:28;8.20;99.90
21246;DHT22;10781;50.928;4.440;2023-01-10T16:46:54;8.20;99.90
21246;DHT22;10781;50.928;4.440;2023-01-10T16:49:21;8.10;99.90
21246;DHT22;10781;50.928;4.440;2023-01-10T16:51:47;8.20;99.90
21246;DHT22;10781;50.928;4.440;2023-01-10T16:54:18;8.20;99.90
21246;DHT22;10781;50.928;4.440;2023-01-10T16:56:45;8.20;99.90
21246;DHT22;10781;50.928;4.440;2023-01-10T16:59:12;8.30;99.90
21246;DHT22;10781;50.928;4.440;2023-01-10T17:01:41;8.40;99.90
21246;DHT22;10781;50.928;4.440;2023-01-10T17:04:11;8.40;99.90
21246;DHT22;10781;50.928;4.440;2023-01-10T17:06:42;8.40;99.90
21246;DHT22;10781;50.928;4.440;2023-01-10T17:09:22;8.40;99.90
21246;DHT22;10781;50.928;4.440;2023-01-10T17:12:03;8.30;99.90
21246;DHT22;10781;50.928;4.440;2023-01-10T17:14:33;8.40;99.90
21246;DHT22;10781;50.928;4.440;2023-01-10T17:16:59;8.40;99.90
21246;DHT22;10781;50.928;4.440;2023-01-10T17:19:25;8.60;99.90
21246;DHT22;10781;50.928;4.440;2023-01-10T17:21:51;8.60;99.90
21246;DHT22;10781;50.928;4.440;2023-01-10T17:24:16;8.60;99.90
21246;DHT22;10781;50.928;4.440;2023-01-10T17:26:45;8.70;99.90
21246;DHT22;10781;50.928;4.440;2023-01-10T17:29:20;8.60;99.90
21246;DHT22;10781;50.928;4.440;2023-01-10T17:31:45;8.70;99.90
21246;DHT22;10781;50.928;4.440;2023-01-10T17:34:11;8.70;99.90
21246;DHT22;10781;50.928;4.440;2023-01-10T17:36:37;8.70;99.90
21246;DHT22;10781;50.928;4.440;2023-01-10T17:39:04;8.70;99.90